Terminal Aerodrome Forecast
Issued by NWS Wichita, KS

Home | Current Version | Previous Version | Text Only | Print | Product List | Glossary Off
Versions: 1 2 3 4 5 6 7 8 9 10 11 12 13 14 15 16 17 18 19 20 21 22 23 24 25 26 27 28 29

000
FTUS43 KICT 200534
TAFICT
TAF
KICT 200534Z 2006/2106 10007KT 2SM BR OVC006
      TEMPO 2006/2008 1/2SM FG OVC003
     FM200800 08004KT 1/4SM FG OVC003
     FM201500 11004KT 1SM BR OVC004
     FM201800 15007KT P6SM BKN009
     FM202300 20008KT P6SM BKN030
     FM210100 20007KT P6SM SCT030=

USA.gov is the U.S. government's official web portal to all federal, state and local government web resources and services.